03:54
Airports
History
Links
Donate
Help keep this website running!
PayPal
Bitcoin
Information on this page is community maintained and may be outdated or inaccurate and is intended for reference only or PC simulator navigating!
Always use approved charts for navigating.
EDSH
Backnang-Heiningen
Backnang-Heiningen (EDSH)
Allmersbach, Baden-Wurttemberg, Germany (71573)
(C)
Lat/Lng:48° 55' 11.4" N / 9° 27' 19.2" E
48.919833 / 9.455333
Elevation:963'ft 294mMSL
ID / ICAO:EDSH
Runways:1
Longest:(10-28) 498.9m 1,637ft Grass
Controlled:Yes
Distance To
Airport ID:
Airport Radio Frequencies
Tower: 126.5
Nearby VORs <50NM
Nearby NDBs
Nearby WeatherUpdated 03-25-17 03:50 GMT
Nearby weather at EDDS, Stuttgart located 19.1 nautical miles from EDSH
Altimeter: 30.27
Visibility: 6.2 statute miles
Wind: 8 knots (080°)
Temp: 6°c 43°f
Humidity: 81.0%

METAR: EDDS 250350Z 08008KT 9999 BKN020 06/03 Q1025

(Powered by phpweather)
Runway 10 / 28
Dimensions:498.9 x 29.9m 1637' x 98'ft
Surface:Grass
Runway 10 [A]Runway 28 [B]
Heading:106°TH 286°TH
Lat:
Lng:
48° 55' 13.63"N
9° 27' 7.35"E
48° 55' 9.17"N
9° 27' 31.05"E
Google Map
Nearby Airports
(C) Pattonville Airport 11.2 NM
EDTQ WSW 249°
(C) Stuttgart 19.1 NM
EDDS (WX) SSW 213°
(U) SCHWABISCH HALL 20.2 NM
EDTY NE 47°
(C) Heubach 22.9 NM
EDTH ESE 110°
(U) Ingelfingen Buehlhof 29.2 NM
EDGI NNE 18°
(U) Laichingen 30.4 NM
EDPJ SSE 163°
(U) Mosbach Lohrbach 36.5 NM
EDGM NNW 335°
VFR Chart
Flight Planning at SkyVector.com